Joppa, Alabama
Current Conditions -  °F | °C
As of 4:35 PM on Friday 28 Nov 2014 (Local Time) from KCMD Reporting Station
Clear Clear  
Wind Chill: 42°   Ceiling: Unl
Heat Index: 46°   Visibility: 10mi
Dew Point: 21°   Wind: 6mph
Humidity: 38%   Direction: 180°S
Pressure: 30.27"   Gusts: NA
Location:  34.3°N, 86.56°W
Report Text: KCMD 282235Z AUTO 18005KT 10SM CLR 08/M06 A3027 RMK AO2 T00751059
Loading
Personal Weather Stations






























Interactive Weather Map New forecast layout! Learn more

10-Day Weather Forecast

Advertisements
Track Severe Weather on mobile